Página principal
METAR-TAF:

METAR-TAF

Aeroportos :

Longyearbyen, Noruega

latitude: 78-15N, longitude: 015-28E, altura: 2 m

Observação actual do tempo

O boletim foi feito há 35 minutos, às 13:50 UTC
Vento 5 kt de oeste
Temperatura 7°C
Humidade 76%
Pressão 988 hPa
Visibilidade 10 km ou mais
Poucas nuvensa uma altura de 1500 ft
Nuvens dispersasa uma altura de 3000 ft

METAR: ENSB 201350Z 26005KT 9999 FEW015 SCT030 07/03 Q0988 RMK WIND 1400FT 30005KT

Hora: 16:25 (14:25 UTC)

Previsão

Previsão válida de 20 às 12 UTC a 21 às 12 UTC
Vento 8 kt de oes-sudoeste
Visibilidade 10 km ou mais
Poucas nuvensa uma altura de 1500 ft
Nuvens fragmentadasa uma altura de 3000 ft
Temporariamente
de 20 às 21 UTC a 21 às 03 UTC
Vento 12 kt de es-sudeste
Nuvens fragmentadasa uma altura de 1400 ft
chuva

TAF: ENSB 2012/2112 25008KT 9999 FEW015 BKN030 TEMPO 2021/2103 11012KT RA BKN014

Observações e previsões do tempo de mais de 4000 aeroportos (mensagens METAR e TAF).

As estações disponíveis são os pontos amarelos e vermelhos sobre o mapa.

Mova o rato sobre o mapa para ver o nome da estação.

Depois clique no ponto para visualizar as observações e previsões meteorológicas.

Para alterar o mapa : clique nos botões verdes com uma cruz preta para aumentar o zoom; no botão verde com uma pitada de zoom; ou nas setas verdes para mapas adjacentes.


METAR-TAF: